Time;durP1;ratioP1;P1;durP2;ratioP2;P2;SDS_P1;SDS_P2;PMS_P1;PMS_P2;Temp;Humidity;BMP_temperature;BMP_pressure;BME280_temperature;BME280_humidity;BME280_pressure;Samples;Min_cycle;Max_cycle;Signal;HPM_P1;HPM_P2
2021/03/09 00:04:39;;;;;;;9.97;7.03;;;;;;;;;;5098812;28;20081;-56
2021/03/09 00:07:17;;;;;;;11.10;7.43;;;;;;;;;;5098060;28;20468;-57
2021/03/09 00:10:02;;;;;;;7.77;6.97;;;;;;;;;;5099750;28;20052;-55
2021/03/09 00:12:34;;;;;;;9.47;6.53;;;;;;;;;;5099173;28;20102;-56
2021/03/09 00:15:12;;;;;;;8.70;6.97;;;;;;;;;;5098344;28;20025;-55
2021/03/09 00:17:48;;;;;;;10.43;7.17;;;;;;;;;;5097248;28;20319;-55
2021/03/09 00:20:28;;;;;;;10.70;6.47;;;;;;;;;;5097776;28;20027;-55
2021/03/09 00:23:23;;;;;;;9.87;6.73;;;;;;;;;;5099014;28;20027;-56
2021/03/09 00:25:59;;;;;;;11.93;6.67;;;;;;;;;;5098924;28;20070;-56
2021/03/09 00:28:46;;;;;;;7.37;6.17;;;;;;;;;;5099207;28;20437;-57
2021/03/09 00:31:19;;;;;;;8.93;6.03;;;;;;;;;;5099032;28;20490;-56
2021/03/09 00:34:31;;;;;;;9.03;5.73;;;;;;;;;;5099714;28;20028;-53
2021/03/09 00:37:20;;;;;;;7.10;5.73;;;;;;;;;;5099399;28;20126;-55
2021/03/09 00:43:27;;;;;;;10.18;6.93;;;;;;;;;;5098855;28;20085;-57
2021/03/09 00:46:10;;;;;;;8.60;6.27;;;;;;;;;;5097768;28;20118;-56
2021/03/09 00:49:09;;;;;;;;;;;;;;;;;;;;;
2021/03/09 00:51:42;;;;;;;8.80;5.93;;;;;;;;;;5101252;27;20442;-56
2021/03/09 01:00:06;;;;;;;8.00;6.00;;;;;;;;;;5145026;27;20038;-55
2021/03/09 01:02:59;;;;;;;10.30;7.00;;;;;;;;;;5159287;27;20082;-55
2021/03/09 01:05:35;;;;;;;7.37;5.77;;;;;;;;;;5140613;27;20034;-53
2021/03/09 01:08:29;;;;;;;8.57;6.00;;;;;;;;;;5159553;27;20023;-55
2021/03/09 01:10:58;;;;;;;9.30;7.57;;;;;;;;;;5140686;27;20035;-54
2021/03/09 01:13:59;;;;;;;10.83;7.53;;;;;;;;;;5138288;27;20137;-54
2021/03/09 01:16:42;;;;;;;13.60;8.07;;;;;;;;;;5104907;27;20038;-55
2021/03/09 01:19:35;;;;;;;8.20;6.60;;;;;;;;;;5159606;27;20030;-54
2021/03/09 01:22:19;;;;;;;8.30;7.17;;;;;;;;;;5144100;27;20405;-54
2021/03/09 01:25:23;;;;;;;9.07;6.37;;;;;;;;;;5159645;27;20035;-54
2021/03/09 01:27:49;;;;;;;13.53;8.20;;;;;;;;;;5137428;27;20037;-54
2021/03/09 01:30:17;;;;;;;9.70;7.83;;;;;;;;;;5159983;27;20105;-55
2021/03/09 01:32:56;;;;;;;10.00;6.87;;;;;;;;;;5159701;27;20026;-56
2021/03/09 01:35:38;;;;;;;12.57;8.93;;;;;;;;;;5160171;27;20035;-53
2021/03/09 01:38:14;;;;;;;12.07;8.73;;;;;;;;;;5160484;27;20019;-55
2021/03/09 01:40:52;;;;;;;9.60;7.70;;;;;;;;;;5160232;27;20026;-55
2021/03/09 01:46:26;;;;;;;11.57;8.17;;;;;;;;;;5160075;27;20083;-57
2021/03/09 01:55:19;;;;;;;13.83;8.00;;;;;;;;;;5158760;27;20046;-55
2021/03/09 01:58:07;;;;;;;11.77;7.37;;;;;;;;;;5038890;28;20033;-56
2021/03/09 02:00:55;;;;;;;10.80;8.03;;;;;;;;;;5055227;28;20462;-57
2021/03/09 02:03:50;;;;;;;9.10;7.27;;;;;;;;;;5067077;27;20429;-55
2021/03/09 02:06:19;;;;;;;13.07;7.63;;;;;;;;;;5141320;27;20031;-57
2021/03/09 02:11:55;;;;;;;16.93;8.47;;;;;;;;;;5159378;27;20037;-54
2021/03/09 02:14:43;;;;;;;11.50;8.70;;;;;;;;;;5159653;27;20023;-55
2021/03/09 02:17:31;;;;;;;11.00;8.10;;;;;;;;;;5159537;27;20109;-56
2021/03/09 02:20:16;;;;;;;12.33;8.47;;;;;;;;;;5140998;27;20451;-54
2021/03/09 02:23:02;;;;;;;10.63;8.90;;;;;;;;;;5159439;27;20027;-54
2021/03/09 02:31:57;;;;;;;10.70;7.90;;;;;;;;;;5158871;27;20131;-54
2021/03/09 02:35:02;;;;;;;14.33;9.20;;;;;;;;;;5159373;27;20035;-54
2021/03/09 02:37:38;;;;;;;13.03;7.70;;;;;;;;;;5158803;27;20097;-55
2021/03/09 02:40:24;;;;;;;9.47;7.33;;;;;;;;;;5159402;27;20401;-55
2021/03/09 02:43:14;;;;;;;11.57;7.90;;;;;;;;;;5159266;27;20030;-55
2021/03/09 02:45:50;;;;;;;10.90;7.77;;;;;;;;;;5158829;27;20031;-54
2021/03/09 02:48:33;;;;;;;13.53;8.67;;;;;;;;;;5160273;27;20055;-56
2021/03/09 02:51:37;;;;;;;10.37;7.77;;;;;;;;;;5159150;27;20532;-55
2021/03/09 02:54:20;;;;;;;15.47;8.70;;;;;;;;;;5157748;27;20133;-56
2021/03/09 03:03:10;;;;;;;9.70;7.83;;;;;;;;;;5134179;27;20035;-55
2021/03/09 03:05:59;;;;;;;11.37;8.80;;;;;;;;;;5135127;27;20472;-56
2021/03/09 03:08:43;;;;;;;12.83;8.90;;;;;;;;;;5158754;27;20470;-54
2021/03/09 03:11:17;;;;;;;9.03;7.93;;;;;;;;;;5157915;27;20037;-55
2021/03/09 03:13:53;;;;;;;10.70;7.87;;;;;;;;;;5160934;27;20019;-57
2021/03/09 03:16:49;;;;;;;10.97;8.00;;;;;;;;;;5163546;27;20341;-56
2021/03/09 03:19:24;;;;;;;9.20;7.80;;;;;;;;;;5145908;27;20033;-53
2021/03/09 03:22:12;;;;;;;9.40;7.50;;;;;;;;;;5129051;27;20027;-55
2021/03/09 03:25:25;;;;;;;12.50;7.43;;;;;;;;;;5163494;27;20363;-55
2021/03/09 03:28:18;;;;;;;11.10;7.13;;;;;;;;;;5059328;28;20040;-55
2021/03/09 03:31:19;;;;;;;9.87;7.03;;;;;;;;;;5055733;28;20115;-56
2021/03/09 03:33:51;;;;;;;11.47;7.00;;;;;;;;;;5059085;28;20029;-56
2021/03/09 03:36:29;;;;;;;14.20;8.93;;;;;;;;;;5041818;28;20179;-56
2021/03/09 03:39:04;;;;;;;13.93;7.97;;;;;;;;;;5059639;28;20025;-53
2021/03/09 03:41:42;;;;;;;10.10;7.93;;;;;;;;;;5111082;27;20066;-54
2021/03/09 03:44:23;;;;;;;10.40;7.37;;;;;;;;;;5143644;27;20026;-55
2021/03/09 03:47:16;;;;;;;;;;;;;;;;;;;;;
2021/03/09 03:49:54;;;;;;;8.77;7.93;;;;;;;;;;5159401;27;20110;-54
2021/03/09 03:52:45;;;;;;;9.90;8.30;;;;;;;;;;5143673;27;20062;-55
2021/03/09 03:58:37;;;;;;;13.77;8.90;;;;;;;;;;5119638;28;20381;-53
2021/03/09 04:01:23;;;;;;;8.70;6.90;;;;;;;;;;5121007;28;20032;-54
2021/03/09 04:04:21;;;;;;;9.17;6.63;;;;;;;;;;5120063;28;20462;-56
2021/03/09 04:07:23;;;;;;;12.73;8.40;;;;;;;;;;5121277;28;20429;-55
2021/03/09 04:13:00;;;;;;;;;;;;;;;;;;;;;
2021/03/09 04:18:33;;;;;;;12.27;7.57;;;;;;;;;;5118571;28;20035;-56
2021/03/09 04:21:18;;;;;;;12.77;10.00;;;;;;;;;;5099751;28;20126;-53
2021/03/09 04:24:06;;;;;;;14.37;8.97;;;;;;;;;;5119681;28;20030;-54
2021/03/09 04:26:56;;;;;;;12.73;9.37;;;;;;;;;;5121631;28;20433;-56
2021/03/09 04:32:18;;;;;;;11.37;8.70;;;;;;;;;;5116069;28;20039;-52
2021/03/09 04:38:09;;;;;;;10.90;8.20;;;;;;;;;;5110412;28;20486;-56
2021/03/09 04:40:36;;;;;;;13.23;8.83;;;;;;;;;;5113410;28;20385;-52
2021/03/09 04:43:24;;;;;;;12.53;10.07;;;;;;;;;;5113834;28;20032;-55
2021/03/09 04:46:14;;;;;;;11.37;8.67;;;;;;;;;;5113960;28;20128;-53
2021/03/09 04:49:02;;;;;;;;;;;;;;;;;;;;;
2021/03/09 04:52:10;;;;;;;12.90;8.23;;;;;;;;;;5114142;28;20035;-55
2021/03/09 04:55:06;;;;;;;12.70;9.33;;;;;;;;;;5129888;27;20096;-55
2021/03/09 04:57:47;;;;;;;12.73;10.30;;;;;;;;;;5072747;28;20137;-56
2021/03/09 05:00:49;;;;;;;10.77;8.50;;;;;;;;;;5133981;27;20024;-52
2021/03/09 05:03:28;;;;;;;11.33;10.10;;;;;;;;;;5133525;27;20106;-53
2021/03/09 05:06:20;;;;;;;11.10;9.00;;;;;;;;;;5134055;27;20039;-56
2021/03/09 05:09:12;;;;;;;;;;;;;;;;;;;;;
2021/03/09 05:12:14;;;;;;;10.37;9.23;;;;;;;;;;5132288;27;20045;-54
2021/03/09 05:14:53;;;;;;;14.63;10.63;;;;;;;;;;5134566;27;20035;-54
2021/03/09 05:17:29;;;;;;;10.23;8.20;;;;;;;;;;5136235;27;20029;-55
2021/03/09 05:20:16;;;;;;;13.37;8.97;;;;;;;;;;5136782;27;20019;-53
2021/03/09 05:22:59;;;;;;;13.97;9.07;;;;;;;;;;5135759;27;20039;-50
2021/03/09 05:25:35;;;;;;;;;;;;;;;;;;;;;
2021/03/09 05:28:15;;;;;;;11.40;9.63;;;;;;;;;;5136447;27;20433;-55
2021/03/09 05:30:56;;;;;;;17.83;10.83;;;;;;;;;;5117110;27;20068;-56
2021/03/09 05:33:42;;;;;;;15.33;9.20;;;;;;;;;;5117224;27;20025;-56
2021/03/09 05:36:21;;;;;;;;;;;;;;;;;;;;;
2021/03/09 05:39:00;;;;;;;13.60;10.83;;;;;;;;;;5135995;27;20032;-54
2021/03/09 05:41:31;;;;;;;15.83;10.03;;;;;;;;;;5136490;27;20415;-54
2021/03/09 05:44:19;;;;;;;12.43;9.80;;;;;;;;;;5136266;27;20027;-54
2021/03/09 05:47:14;;;;;;;14.00;9.60;;;;;;;;;;5135626;27;20081;-53
2021/03/09 05:49:59;;;;;;;12.40;9.60;;;;;;;;;;5117105;27;20031;-53
2021/03/09 05:52:34;;;;;;;12.53;10.83;;;;;;;;;;5136140;27;20445;-54
2021/03/09 05:55:26;;;;;;;15.70;10.30;;;;;;;;;;5155069;27;20449;-56
2021/03/09 05:58:10;;;;;;;13.53;10.93;;;;;;;;;;5156209;27;20031;-55
2021/03/09 06:00:58;;;;;;;;;;;;;;;;;;;;;
2021/03/09 06:03:58;;;;;;;15.57;10.93;;;;;;;;;;5156305;27;20456;-56
2021/03/09 06:06:30;;;;;;;14.17;9.60;;;;;;;;;;5155684;27;20031;-53
2021/03/09 06:09:19;;;;;;;12.70;9.87;;;;;;;;;;5138860;27;20306;-54
2021/03/09 06:12:06;;;;;;;12.37;9.73;;;;;;;;;;5139899;27;20049;-56
2021/03/09 06:14:55;;;;;;;12.67;9.47;;;;;;;;;;5156681;27;20023;-54
2021/03/09 06:17:48;;;;;;;;;;;;;;;;;;;;;
2021/03/09 06:20:32;;;;;;;15.47;10.77;;;;;;;;;;5156494;27;20110;-56
2021/03/09 06:25:57;;;;;;;21.50;11.90;;;;;;;;;;5156558;27;20083;-54
2021/03/09 06:28:47;;;;;;;14.43;11.50;;;;;;;;;;5137539;27;20027;-54
2021/03/09 06:31:32;;;;;;;15.07;10.63;;;;;;;;;;5155925;27;20460;-57
2021/03/09 06:34:20;;;;;;;17.30;11.13;;;;;;;;;;5139942;27;20264;-56
2021/03/09 06:40:13;;;;;;;14.97;13.13;;;;;;;;;;5136735;27;20045;-55
2021/03/09 06:43:07;;;;;;;12.53;10.13;;;;;;;;;;5136422;27;20030;-55
2021/03/09 06:45:57;;;;;;;13.47;11.10;;;;;;;;;;5137353;27;20400;-57
2021/03/09 06:48:45;;;;;;;15.00;12.17;;;;;;;;;;5136702;27;20018;-55
2021/03/09 06:51:39;;;;;;;16.77;13.47;;;;;;;;;;5135715;27;20035;-53
2021/03/09 06:54:30;;;;;;;14.83;11.13;;;;;;;;;;5154538;27;20379;-55
2021/03/09 07:00:12;;;;;;;20.53;13.90;;;;;;;;;;5155028;27;20176;-57
2021/03/09 07:05:40;;;;;;;18.13;14.20;;;;;;;;;;5143606;27;20035;-57
2021/03/09 07:08:42;;;;;;;16.37;13.50;;;;;;;;;;5136876;27;20229;-57
2021/03/09 07:11:13;;;;;;;19.50;14.47;;;;;;;;;;5034016;28;20115;-57
2021/03/09 07:13:42;;;;;;;;;;;;;;;;;;5116849;27;20035;-57
2021/03/09 07:19:20;;;;;;;18.33;12.57;;;;;;;;;;5049980;28;20033;-54
2021/03/09 07:25:00;;;;;;;16.83;13.27;;;;;;;;;;5131448;27;20038;-53
2021/03/09 07:27:56;;;;;;;16.57;14.13;;;;;;;;;;5155019;27;20490;-54
2021/03/09 07:36:57;;;;;;;17.23;13.83;;;;;;;;;;5150400;27;20038;-53
2021/03/09 07:39:43;;;;;;;20.57;12.47;;;;;;;;;;5155051;27;20019;-56
2021/03/09 07:42:33;;;;;;;19.00;14.77;;;;;;;;;;5155116;27;20042;-56
2021/03/09 07:45:22;;;;;;;18.90;13.50;;;;;;;;;;5136019;27;20374;-53
2021/03/09 07:48:16;;;;;;;18.93;13.77;;;;;;;;;;5154629;27;20050;-54
2021/03/09 07:51:00;;;;;;;17.37;12.40;;;;;;;;;;5154344;27;20372;-55
2021/03/09 07:53:32;;;;;;;19.47;13.17;;;;;;;;;;5124292;27;20077;-57
2021/03/09 07:56:04;;;;;;;19.90;12.40;;;;;;;;;;5134291;27;20514;-53
2021/03/09 08:02:17;;;;;;;17.05;12.30;;;;;;;;;;5128080;27;20045;-54
2021/03/09 08:05:16;;;;;;;;;;;;;;;;;;;;;
2021/03/09 08:08:05;;;;;;;20.23;14.30;;;;;;;;;;5129441;27;20030;-54
2021/03/09 08:10:43;;;;;;;;;;;;;;;;;;;;;
2021/03/09 08:13:29;;;;;;;16.17;12.80;;;;;;;;;;5158571;27;20371;-57
2021/03/09 08:16:25;;;;;;;13.57;11.63;;;;;;;;;;5139635;27;20019;-52
2021/03/09 08:19:42;;;;;;;19.30;13.27;;;;;;;;;;5139731;27;20523;-54
2021/03/09 08:22:17;;;;;;;17.33;13.90;;;;;;;;;;5036399;28;20155;-55
2021/03/09 08:24:54;;;;;;;15.23;12.27;;;;;;;;;;5054167;28;20068;-54
2021/03/09 08:27:38;;;;;;;16.83;13.10;;;;;;;;;;5054201;28;20025;-58
2021/03/09 08:30:19;;;;;;;17.23;14.13;;;;;;;;;;5073490;27;20177;-54
2021/03/09 08:32:55;;;;;;;17.37;12.43;;;;;;;;;;5158593;27;20038;-57
2021/03/09 08:38:32;;;;;;;17.20;12.47;;;;;;;;;;5126213;27;20050;-56
2021/03/09 08:47:31;;;;;;;18.90;12.63;;;;;;;;;;5159533;27;20383;-54
2021/03/09 08:50:36;;;;;;;;;;;;;;;;;;;;;
2021/03/09 08:53:14;;;;;;;19.97;13.07;;;;;;;;;;5152019;27;20043;-52
2021/03/09 08:56:16;;;;;;;21.20;14.03;;;;;;;;;;5156462;27;20468;-53
2021/03/09 09:02:29;;;;;;;17.23;12.43;;;;;;;;;;5110540;27;20153;-54
2021/03/09 09:05:03;;;;;;;18.30;13.37;;;;;;;;;;5156645;27;20048;-53
2021/03/09 09:07:58;;;;;;;13.90;12.40;;;;;;;;;;5138222;27;20019;-56
2021/03/09 09:10:57;;;;;;;13.57;11.17;;;;;;;;;;5138625;27;20027;-56
2021/03/09 09:13:47;;;;;;;13.80;11.70;;;;;;;;;;5157191;27;20476;-56
2021/03/09 09:16:37;;;;;;;17.42;13.45;;;;;;;;;;5137520;27;20466;-55
2021/03/09 09:19:07;;;;;;;16.80;13.30;;;;;;;;;;5157264;27;20031;-57
2021/03/09 09:22:04;;;;;;;16.65;12.45;;;;;;;;;;5156633;27;20026;-56
2021/03/09 09:24:40;;;;;;;14.80;11.18;;;;;;;;;;5154909;27;20118;-56
2021/03/09 09:27:25;;;;;;;15.68;12.38;;;;;;;;;;5137074;27;20509;-56
2021/03/09 09:30:05;;;;;;;13.03;11.23;;;;;;;;;;5103708;27;20066;-58
2021/03/09 09:35:38;;;;;;;12.23;10.90;;;;;;;;;;5156815;27;20018;-57
2021/03/09 09:38:11;;;;;;;16.27;12.53;;;;;;;;;;5155834;27;20134;-58
2021/03/09 09:40:53;;;;;;;16.97;11.40;;;;;;;;;;5156975;27;20023;-58
2021/03/09 09:43:39;;;;;;;14.93;12.50;;;;;;;;;;5137174;27;20035;-56
2021/03/09 09:46:32;;;;;;;23.03;12.27;;;;;;;;;;5127748;27;20507;-58
2021/03/09 09:49:09;;;;;;;15.03;12.37;;;;;;;;;;5156937;27;20023;-58
2021/03/09 09:51:48;;;;;;;;;;;;;;;;;;;;;
2021/03/09 09:54:20;;;;;;;16.48;12.25;;;;;;;;;;5155834;27;20164;-58
2021/03/09 09:56:50;;;;;;;13.30;11.43;;;;;;;;;;5154663;27;20394;-58
2021/03/09 09:59:46;;;;;;;11.27;9.50;;;;;;;;;;5153596;27;20050;-58
2021/03/09 10:05:27;;;;;;;12.02;9.68;;;;;;;;;;5156499;27;20105;-55
2021/03/09 10:08:08;;;;;;;15.48;10.85;;;;;;;;;;5156320;27;20027;-56
2021/03/09 10:10:41;;;;;;;14.90;11.05;;;;;;;;;;5122296;27;20023;-59
2021/03/09 10:13:37;;;;;;;20.63;12.68;;;;;;;;;;5156340;27;20030;-58
2021/03/09 10:19:17;;;;;;;10.63;9.50;;;;;;;;;;5156255;27;20039;-58
2021/03/09 10:21:58;;;;;;;13.90;7.90;;;;;;;;;;5137383;27;20472;-57
2021/03/09 10:25:05;;;;;;;13.02;9.68;;;;;;;;;;5155993;27;20053;-58
2021/03/09 10:28:21;;;;;;;10.93;9.20;;;;;;;;;;5050727;28;20085;-58
2021/03/09 10:31:34;;;;;;;;;;;;;;;;;;;;;
2021/03/09 10:34:07;;;;;;;15.85;9.60;;;;;;;;;;5135273;27;20118;-57
2021/03/09 10:37:09;;;;;;;13.25;7.85;;;;;;;;;;5155676;27;20026;-58
2021/03/09 10:43:03;;;;;;;;;;;;;;;;;;;;;
2021/03/09 10:45:40;;;;;;;9.33;6.73;;;;;;;;;;5156475;27;20086;-58
2021/03/09 10:48:06;;;;;;;9.25;7.57;;;;;;;;;;5139775;27;20038;-58
2021/03/09 10:50:44;;;;;;;9.43;6.85;;;;;;;;;;5114849;27;20022;-56
2021/03/09 10:53:29;;;;;;;;;;;;;;;;;;;;;
2021/03/09 10:56:25;;;;;;;8.80;6.88;;;;;;;;;;5154137;27;20543;-56
2021/03/09 10:59:03;;;;;;;8.65;6.72;;;;;;;;;;5063948;27;20057;-54
2021/03/09 11:01:38;;;;;;;7.05;4.75;;;;;;;;;;5137143;27;20034;-56
2021/03/09 11:07:18;;;;;;;11.07;5.05;;;;;;;;;;5135719;27;20472;-56
2021/03/09 11:10:02;;;;;;;5.47;4.53;;;;;;;;;;5155728;27;20015;-56
2021/03/09 11:15:23;;;;;;;6.88;5.65;;;;;;;;;;5138442;27;20046;-56
2021/03/09 11:17:57;;;;;;;9.00;5.28;;;;;;;;;;5154888;27;20011;-55
2021/03/09 11:20:55;;;;;;;6.13;4.55;;;;;;;;;;5154940;27;20025;-56
2021/03/09 11:23:39;;;;;;;6.45;5.38;;;;;;;;;;5155109;27;20023;-55
2021/03/09 11:26:18;;;;;;;;;;;;;;;;;;;;;
2021/03/09 11:31:49;;;;;;;6.50;5.13;;;;;;;;;;5148859;27;20091;-56
2021/03/09 11:34:17;;;;;;;;;;;;;;;;;;5137875;27;20027;-54
2021/03/09 11:37:10;;;;;;;7.95;6.38;;;;;;;;;;5140157;27;19903;-55
2021/03/09 11:40:06;;;;;;;7.55;6.07;;;;;;;;;;5151231;27;20031;-56
2021/03/09 11:42:45;;;;;;;7.03;5.72;;;;;;;;;;5158325;27;20027;-54
2021/03/09 11:45:36;;;;;;;11.50;6.32;;;;;;;;;;5158307;27;20029;-55
2021/03/09 11:48:08;;;;;;;7.80;6.13;;;;;;;;;;5158731;27;20019;-56
2021/03/09 11:50:47;;;;;;;7.88;5.78;;;;;;;;;;5122496;27;20436;-56
2021/03/09 11:53:23;;;;;;;8.38;7.28;;;;;;;;;;5158275;27;20038;-52
2021/03/09 11:56:05;;;;;;;6.60;5.90;;;;;;;;;;5158460;27;20460;-56
2021/03/09 11:58:49;;;;;;;6.75;6.10;;;;;;;;;;5158660;27;20082;-54
2021/03/09 12:01:22;;;;;;;7.18;5.30;;;;;;;;;;5154664;27;20484;-54
2021/03/09 12:03:58;;;;;;;6.43;5.25;;;;;;;;;;5158175;27;20409;-56
2021/03/09 12:06:35;;;;;;;7.85;5.47;;;;;;;;;;5158623;27;20163;-57
2021/03/09 12:09:33;;;;;;;9.60;7.35;;;;;;;;;;5158661;27;20375;-56
2021/03/09 12:12:38;;;;;;;;;;;;;;;;;;;;;
2021/03/09 12:15:16;;;;;;;7.38;6.03;;;;;;;;;;5149638;27;20041;-56
2021/03/09 12:17:59;;;;;;;6.03;5.40;;;;;;;;;;5158280;27;20027;-56
2021/03/09 12:20:42;;;;;;;6.07;5.07;;;;;;;;;;5158427;27;20149;-56
2021/03/09 12:23:15;;;;;;;5.35;4.78;;;;;;;;;;5139455;27;20124;-56
2021/03/09 12:26:19;;;;;;;6.82;5.40;;;;;;;;;;5158143;27;20031;-56
2021/03/09 12:31:50;;;;;;;7.05;4.85;;;;;;;;;;5155787;27;20126;-56
2021/03/09 12:34:24;;;;;;;9.63;6.45;;;;;;;;;;5158410;27;20105;-54
2021/03/09 12:37:08;;;;;;;11.68;6.90;;;;;;;;;;5140658;27;20027;-57
2021/03/09 12:39:59;;;;;;;10.25;5.25;;;;;;;;;;5139477;27;20041;-55
2021/03/09 12:42:52;;;;;;;6.40;4.90;;;;;;;;;;5092910;27;20061;-56
2021/03/09 12:45:38;;;;;;;10.48;6.80;;;;;;;;;;5157061;27;20692;-56
2021/03/09 12:48:27;;;;;;;;;;;;;;;;;;;;;
2021/03/09 12:54:15;;;;;;;6.28;5.60;;;;;;;;;;5157795;27;20494;-53
2021/03/09 12:56:43;;;;;;;8.00;5.85;;;;;;;;;;5155633;27;20095;-59
2021/03/09 13:02:25;;;;;;;6.22;5.13;;;;;;;;;;5157335;27;20142;-56
2021/03/09 13:04:55;;;;;;;7.10;5.85;;;;;;;;;;5157314;27;20097;-56
2021/03/09 13:07:34;;;;;;;6.15;5.25;;;;;;;;;;5144638;27;20027;-55
2021/03/09 13:10:08;;;;;;;7.28;5.82;;;;;;;;;;5134451;27;20453;-56
2021/03/09 13:12:48;;;;;;;7.95;6.07;;;;;;;;;;5138703;27;20022;-54
2021/03/09 13:15:32;;;;;;;9.38;5.13;;;;;;;;;;5157061;27;20483;-56
2021/03/09 13:18:10;;;;;;;7.07;6.38;;;;;;;;;;5156959;27;20048;-54
2021/03/09 13:20:50;;;;;;;13.32;6.15;;;;;;;;;;5137954;27;20094;-55
2021/03/09 13:23:45;;;;;;;6.95;5.75;;;;;;;;;;5157530;27;20073;-56
2021/03/09 13:26:23;;;;;;;7.82;7.03;;;;;;;;;;5154629;27;20523;-54
2021/03/09 13:28:59;;;;;;;9.07;6.20;;;;;;;;;;5156677;27;20118;-55
2021/03/09 13:31:37;;;;;;;;;;;;;;;;;;;;;
2021/03/09 13:34:24;;;;;;;9.07;6.90;;;;;;;;;;5154091;27;20214;-57
2021/03/09 13:37:13;;;;;;;8.25;6.65;;;;;;;;;;5139212;27;20034;-56
2021/03/09 13:40:00;;;;;;;8.40;6.15;;;;;;;;;;5137722;27;20026;-56
2021/03/09 13:42:40;;;;;;;6.60;5.82;;;;;;;;;;5156437;27;20105;-55
2021/03/09 13:45:22;;;;;;;7.05;5.68;;;;;;;;;;5155113;27;20054;-56
2021/03/09 13:48:00;;;;;;;8.50;7.15;;;;;;;;;;5139346;27;20051;-56
2021/03/09 13:51:04;;;;;;;;;;;;;;;;;;;;;
2021/03/09 13:53:31;;;;;;;8.43;5.68;;;;;;;;;;5156168;27;20027;-55
2021/03/09 13:56:06;;;;;;;9.20;6.85;;;;;;;;;;5155715;27;20376;-56
2021/03/09 13:58:43;;;;;;;8.10;6.78;;;;;;;;;;5155639;27;20129;-56
2021/03/09 14:04:30;;;;;;;8.93;6.88;;;;;;;;;;5155985;27;20069;-57
2021/03/09 14:07:02;;;;;;;13.73;6.95;;;;;;;;;;5137348;27;20034;-56
2021/03/09 14:09:35;;;;;;;10.40;6.65;;;;;;;;;;5137481;27;20528;-55
2021/03/09 14:12:07;;;;;;;10.10;6.88;;;;;;;;;;5136549;27;20039;-56
2021/03/09 14:14:43;;;;;;;11.10;7.32;;;;;;;;;;5137360;27;20056;-57
2021/03/09 14:17:32;;;;;;;12.70;6.63;;;;;;;;;;5155458;27;20027;-57
2021/03/09 14:20:03;;;;;;;10.80;7.38;;;;;;;;;;5086872;27;20066;-58
2021/03/09 14:22:40;;;;;;;7.18;6.40;;;;;;;;;;5156097;27;20031;-56
2021/03/09 14:25:14;;;;;;;11.68;7.95;;;;;;;;;;5138312;27;20033;-55
2021/03/09 14:27:49;;;;;;;8.88;7.55;;;;;;;;;;5155634;27;20102;-55
2021/03/09 14:30:30;;;;;;;9.77;6.70;;;;;;;;;;5138129;27;20555;-54
2021/03/09 14:33:02;;;;;;;;;;;;;;;;;;5137251;27;20546;-56
2021/03/09 14:39:14;;;;;;;;;;;;;;;;;;;;;
2021/03/09 14:41:46;;;;;;;12.73;8.55;;;;;;;;;;5152828;27;20420;-56
2021/03/09 14:47:06;;;;;;;11.30;8.55;;;;;;;;;;5156564;27;20462;-56
2021/03/09 14:49:52;;;;;;;9.30;8.27;;;;;;;;;;5137658;27;20143;-55
2021/03/09 14:52:30;;;;;;;11.15;8.90;;;;;;;;;;5152245;27;20484;-55
2021/03/09 14:58:11;;;;;;;11.90;8.88;;;;;;;;;;5148632;27;20129;-56
2021/03/09 15:01:07;;;;;;;11.38;7.95;;;;;;;;;;5152475;27;20035;-55
2021/03/09 15:03:48;;;;;;;;;;;;;;;;;;;;;
2021/03/09 15:06:20;;;;;;;11.82;8.85;;;;;;;;;;5151418;27;20372;-56
2021/03/09 15:09:04;;;;;;;11.50;8.75;;;;;;;;;;5123559;27;20049;-58
2021/03/09 15:11:40;;;;;;;12.20;9.23;;;;;;;;;;5159917;27;20463;-56
2021/03/09 15:14:25;;;;;;;8.93;7.15;;;;;;;;;;5158518;27;20030;-58
2021/03/09 15:17:02;;;;;;;11.30;8.70;;;;;;;;;;5140251;27;20065;-59
2021/03/09 15:19:29;;;;;;;11.38;8.07;;;;;;;;;;5159453;27;20023;-57
2021/03/09 15:22:09;;;;;;;14.50;9.07;;;;;;;;;;5159121;27;20023;-57
2021/03/09 15:24:39;;;;;;;12.35;10.40;;;;;;;;;;5137478;27;20031;-56
2021/03/09 15:27:27;;;;;;;;;;;;;;;;;;;;;
2021/03/09 15:30:00;;;;;;;11.65;8.95;;;;;;;;;;5159361;27;20029;-58
2021/03/09 15:33:13;;;;;;;9.80;8.45;;;;;;;;;;5139881;27;20037;-58
2021/03/09 15:35:52;;;;;;;;;;;;;;;;;;;;;
2021/03/09 15:38:30;;;;;;;9.30;7.13;;;;;;;;;;5158754;27;20026;-54
2021/03/09 15:41:02;;;;;;;9.50;8.25;;;;;;;;;;5159058;27;20337;-56
2021/03/09 15:43:58;;;;;;;;;;;;;;;;;;;;;
2021/03/09 15:46:43;;;;;;;7.72;6.82;;;;;;;;;;5158993;27;20018;-55
2021/03/09 15:49:20;;;;;;;10.18;8.50;;;;;;;;;;5159124;27;20385;-55
2021/03/09 15:55:02;;;;;;;11.18;8.20;;;;;;;;;;5157506;27;20034;-54
2021/03/09 15:57:34;;;;;;;11.90;8.32;;;;;;;;;;5139599;27;20034;-55
2021/03/09 16:02:57;;;;;;;10.77;7.85;;;;;;;;;;5137714;27;20062;-55
2021/03/09 16:06:11;;;;;;;16.63;8.70;;;;;;;;;;5136323;27;20043;-56
2021/03/09 16:08:46;;;;;;;9.77;7.43;;;;;;;;;;5052968;28;20531;-54
2021/03/09 16:11:14;;;;;;;11.52;7.55;;;;;;;;;;5037329;28;20032;-55
2021/03/09 16:13:55;;;;;;;11.05;8.32;;;;;;;;;;5104771;27;20043;-54
2021/03/09 16:16:40;;;;;;;;;;;;;;;;;;;;;
2021/03/09 16:19:25;;;;;;;8.88;7.18;;;;;;;;;;5124228;27;20035;-57
2021/03/09 16:22:04;;;;;;;8.93;7.75;;;;;;;;;;5137892;27;20030;-55
2021/03/09 16:24:54;;;;;;;8.27;7.38;;;;;;;;;;5135716;27;20098;-54
2021/03/09 16:30:21;;;;;;;;;;;;;;;;;;5123461;27;20161;-55
2021/03/09 16:32:48;;;;;;;8.80;7.20;;;;;;;;;;5117979;27;19931;-55
2021/03/09 16:35:50;;;;;;;11.85;8.48;;;;;;;;;;5137345;27;20345;-55
2021/03/09 16:38:31;;;;;;;9.85;7.75;;;;;;;;;;5132983;27;20035;-56
2021/03/09 16:41:01;;;;;;;8.88;7.70;;;;;;;;;;5136227;27;20024;-55
2021/03/09 16:43:44;;;;;;;9.98;7.93;;;;;;;;;;5137175;27;20031;-56
2021/03/09 16:46:29;;;;;;;15.73;8.13;;;;;;;;;;5136839;27;20456;-57
2021/03/09 16:49:21;;;;;;;11.50;7.57;;;;;;;;;;5135878;27;20032;-57
2021/03/09 16:51:56;;;;;;;10.57;8.23;;;;;;;;;;5135574;27;20023;-57
2021/03/09 16:54:51;;;;;;;9.35;8.30;;;;;;;;;;5134759;27;20430;-56
2021/03/09 16:57:40;;;;;;;13.93;10.80;;;;;;;;;;5136065;27;20027;-52
2021/03/09 17:00:26;;;;;;;10.27;9.27;;;;;;;;;;5153450;27;20046;-56
2021/03/09 17:03:02;;;;;;;10.63;9.40;;;;;;;;;;5157822;27;20022;-56
2021/03/09 17:05:31;;;;;;;10.98;8.82;;;;;;;;;;5157563;27;20023;-56
2021/03/09 17:08:03;;;;;;;10.85;8.10;;;;;;;;;;5134465;27;20031;-57
2021/03/09 17:10:32;;;;;;;12.63;9.55;;;;;;;;;;5139157;27;20026;-55
2021/03/09 17:13:07;;;;;;;11.13;8.98;;;;;;;;;;5157181;27;20034;-56
2021/03/09 17:18:32;;;;;;;10.25;8.88;;;;;;;;;;5148814;27;20113;-56
2021/03/09 17:24:08;;;;;;;12.45;9.60;;;;;;;;;;5156925;27;20026;-57
2021/03/09 17:27:16;;;;;;;10.20;8.77;;;;;;;;;;5138468;27;20030;-56
2021/03/09 17:29:55;;;;;;;13.23;9.77;;;;;;;;;;5156655;27;20110;-57
2021/03/09 17:32:24;;;;;;;9.88;8.50;;;;;;;;;;5156018;27;20023;-54
2021/03/09 17:35:03;;;;;;;11.98;8.05;;;;;;;;;;5156359;27;20019;-56
2021/03/09 17:37:34;;;;;;;15.45;10.25;;;;;;;;;;5155155;27;20034;-55
2021/03/09 17:40:10;;;;;;;12.75;9.38;;;;;;;;;;5156603;27;20019;-56
2021/03/09 17:42:42;;;;;;;11.20;8.13;;;;;;;;;;5156334;27;20030;-56
2021/03/09 17:45:19;;;;;;;11.55;10.30;;;;;;;;;;5156085;27;20022;-56
2021/03/09 17:48:00;;;;;;;12.45;9.68;;;;;;;;;;5137571;27;20418;-56
2021/03/09 17:50:27;;;;;;;12.10;9.98;;;;;;;;;;5156124;27;20018;-56
2021/03/09 17:53:03;;;;;;;13.10;9.85;;;;;;;;;;5156821;27;20452;-54
2021/03/09 17:58:33;;;;;;;13.18;11.02;;;;;;;;;;5150277;27;20409;-57
2021/03/09 18:01:39;;;;;;;11.68;10.25;;;;;;;;;;5155223;27;20099;-55
2021/03/09 18:04:09;;;;;;;12.93;10.38;;;;;;;;;;5151431;27;20100;-54
2021/03/09 18:06:46;;;;;;;13.07;9.65;;;;;;;;;;5156100;27;20054;-56
2021/03/09 18:09:16;;;;;;;12.15;9.77;;;;;;;;;;5137837;27;20041;-55
2021/03/09 18:12:10;;;;;;;11.23;10.10;;;;;;;;;;5155648;27;20039;-56
2021/03/09 18:14:50;;;;;;;12.13;9.27;;;;;;;;;;5136363;27;20035;-56
2021/03/09 18:17:37;;;;;;;14.25;9.52;;;;;;;;;;5136213;27;20030;-56
2021/03/09 18:20:24;;;;;;;13.07;9.60;;;;;;;;;;5154586;27;20026;-56
2021/03/09 18:22:56;;;;;;;13.20;9.50;;;;;;;;;;5154147;27;20144;-54
2021/03/09 18:25:24;;;;;;;10.88;9.73;;;;;;;;;;5155149;27;20464;-56
2021/03/09 18:28:08;;;;;;;11.05;9.05;;;;;;;;;;5136707;27;20507;-56
2021/03/09 18:30:48;;;;;;;11.20;8.43;;;;;;;;;;5155181;27;20440;-56
2021/03/09 18:36:19;;;;;;;12.82;10.27;;;;;;;;;;5116029;27;20036;-57
2021/03/09 18:39:07;;;;;;;;;;;;;;;;;;;;;
2021/03/09 18:42:00;;;;;;;11.98;8.68;;;;;;;;;;5140107;27;20026;-59
2021/03/09 18:44:47;;;;;;;14.13;10.40;;;;;;;;;;5150868;27;20030;-58
2021/03/09 18:47:26;;;;;;;12.75;9.18;;;;;;;;;;5155279;27;20059;-58
2021/03/09 18:49:52;;;;;;;13.65;9.35;;;;;;;;;;5155215;27;20150;-59
2021/03/09 18:52:36;;;;;;;12.35;8.80;;;;;;;;;;5155488;27;20091;-57
2021/03/09 18:55:29;;;;;;;14.65;8.68;;;;;;;;;;5155642;27;20042;-56
2021/03/09 18:58:05;;;;;;;17.92;10.30;;;;;;;;;;5155087;27;20022;-58
2021/03/09 19:01:01;;;;;;;12.60;10.10;;;;;;;;;;5151536;27;20043;-58
2021/03/09 19:03:34;;;;;;;19.67;8.27;;;;;;;;;;5156175;27;20031;-57
2021/03/09 19:06:23;;;;;;;11.90;9.40;;;;;;;;;;5136118;27;20035;-58
2021/03/09 19:09:00;;;;;;;12.05;9.50;;;;;;;;;;5154748;27;20019;-56
2021/03/09 19:11:51;;;;;;;;;;;;;;;;;;;;;